Patrick AFB, Florida
Current Conditions -  °F | °C
As of 6:58 PM on Sunday 23 Nov 2014 (Local Time) from KCOF Reporting Station
Clear Clear  
Wind Chill: 74°   Ceiling: Unl
Heat Index: 74°   Visibility: 8mi
Dew Point: 73°   Wind: 12mph
Humidity: 94%   Direction: 170°S
Pressure: 29.93"   Gusts: NA
Location:  28.22°N, 80.61°W
Report Text: KCOF 232358Z AUTO 17010KT 8SM R20/5500FT CLR 24/23 A2993 RMK AO2 SLP140 60000 T02360226 10254 20234 53010
Loading
Personal Weather Stations






























Interactive Weather Map New forecast layout! Learn more

10-Day Weather Forecast

Advertisements
Track Severe Weather on mobile